Terminal Aerodrome Forecast
Issued by NWS Hastings, NE

Home | Current Version | Previous Version | Text Only | Print | Product List | Glossary On
Versions: 1 2 3 4 5 6 7 8 9 10 11 12 13 14 15 16 17 18 19 20 21 22 23 24 25 26 27 28 29 30
000
FTUS43 KGID 201240 AAA
TAFGRI
TAF AMD
KGRI 201240Z 2013/2112 18005KT 3/4SM -DZ BR OVC003
      TEMPO 2013/2017 1/2SM -DZ FG VV002
     FM201700 16006KT 1 1/2SM -DZ BR OVC003
     FM201800 16006KT 2SM -DZ OVC003
     FM210000 14004KT 3SM -DZ BR OVC003
     FM210200 19005KT 1SM BR OVC003
     FM211000 27006KT 1SM BR OVC008=

USA.gov is the U.S. government's official web portal to all federal, state and local government web resources and services.